sensor_id;sensor_type;location;lat;lon;timestamp;P1;durP1;ratioP1;P2;durP2;ratioP2
61336;SDS011;47212;41.326;2.104;2022-12-10T00:04:08;7.00;;;3.97;;
61336;SDS011;47212;41.326;2.104;2022-12-10T00:09:12;6.97;;;4.18;;
61336;SDS011;47212;41.326;2.104;2022-12-10T00:14:15;7.82;;;5.10;;
61336;SDS011;47212;41.326;2.104;2022-12-10T00:24:20;9.70;;;5.32;;
61336;SDS011;47212;41.326;2.104;2022-12-10T00:29:22;9.73;;;5.75;;
61336;SDS011;47212;41.326;2.104;2022-12-10T00:34:24;14.90;;;10.80;;
61336;SDS011;47212;41.326;2.104;2022-12-10T00:39:26;9.15;;;6.78;;
61336;SDS011;47212;41.326;2.104;2022-12-10T00:44:28;9.25;;;5.35;;
61336;SDS011;47212;41.326;2.104;2022-12-10T00:49:30;7.68;;;5.15;;
61336;SDS011;47212;41.326;2.104;2022-12-10T00:54:35;6.03;;;4.50;;
61336;SDS011;47212;41.326;2.104;2022-12-10T01:04:39;5.20;;;3.80;;
61336;SDS011;47212;41.326;2.104;2022-12-10T01:09:42;6.43;;;4.00;;
61336;SDS011;47212;41.326;2.104;2022-12-10T01:14:45;6.32;;;3.97;;
61336;SDS011;47212;41.326;2.104;2022-12-10T01:19:51;7.43;;;4.55;;
61336;SDS011;47212;41.326;2.104;2022-12-10T01:24:53;6.22;;;4.38;;
61336;SDS011;47212;41.326;2.104;2022-12-10T01:29:56;8.27;;;4.40;;
61336;SDS011;47212;41.326;2.104;2022-12-10T01:34:58;6.03;;;4.68;;
61336;SDS011;47212;41.326;2.104;2022-12-10T01:40:02;7.15;;;4.75;;
61336;SDS011;47212;41.326;2.104;2022-12-10T01:45:07;7.03;;;4.82;;
61336;SDS011;47212;41.326;2.104;2022-12-10T01:50:11;7.57;;;4.35;;
61336;SDS011;47212;41.326;2.104;2022-12-10T02:05:17;6.53;;;3.97;;
61336;SDS011;47212;41.326;2.104;2022-12-10T02:10:32;4.82;;;3.60;;
61336;SDS011;47212;41.326;2.104;2022-12-10T02:15:51;6.45;;;4.18;;
61336;SDS011;47212;41.326;2.104;2022-12-10T02:21:22;6.00;;;4.10;;
61336;SDS011;47212;41.326;2.104;2022-12-10T02:26:51;5.90;;;4.05;;
61336;SDS011;47212;41.326;2.104;2022-12-10T02:37:13;5.45;;;3.70;;
61336;SDS011;47212;41.326;2.104;2022-12-10T02:42:23;7.35;;;4.07;;
61336;SDS011;47212;41.326;2.104;2022-12-10T02:47:28;6.40;;;4.05;;
61336;SDS011;47212;41.326;2.104;2022-12-10T02:52:31;6.57;;;4.15;;
61336;SDS011;47212;41.326;2.104;2022-12-10T03:13:06;7.10;;;4.75;;
61336;SDS011;47212;41.326;2.104;2022-12-10T03:18:12;8.10;;;4.72;;
61336;SDS011;47212;41.326;2.104;2022-12-10T03:23:17;7.40;;;5.10;;
61336;SDS011;47212;41.326;2.104;2022-12-10T03:28:23;7.07;;;4.88;;
61336;SDS011;47212;41.326;2.104;2022-12-10T03:33:27;5.47;;;4.03;;
61336;SDS011;47212;41.326;2.104;2022-12-10T03:38:30;8.18;;;4.82;;
61336;SDS011;47212;41.326;2.104;2022-12-10T03:43:32;6.90;;;4.72;;
61336;SDS011;47212;41.326;2.104;2022-12-10T03:48:34;6.90;;;4.85;;
61336;SDS011;47212;41.326;2.104;2022-12-10T03:53:40;6.38;;;4.90;;
61336;SDS011;47212;41.326;2.104;2022-12-10T03:58:43;7.85;;;4.97;;
61336;SDS011;47212;41.326;2.104;2022-12-10T04:03:45;6.40;;;4.82;;
61336;SDS011;47212;41.326;2.104;2022-12-10T04:08:48;8.05;;;5.15;;
61336;SDS011;47212;41.326;2.104;2022-12-10T04:13:59;6.78;;;4.93;;
61336;SDS011;47212;41.326;2.104;2022-12-10T04:19:20;7.07;;;5.20;;
61336;SDS011;47212;41.326;2.104;2022-12-10T04:24:28;8.13;;;5.35;;
61336;SDS011;47212;41.326;2.104;2022-12-10T04:29:50;8.10;;;5.32;;
61336;SDS011;47212;41.326;2.104;2022-12-10T04:34:53;7.53;;;5.63;;
61336;SDS011;47212;41.326;2.104;2022-12-10T04:39:55;7.55;;;5.10;;
61336;SDS011;47212;41.326;2.104;2022-12-10T04:44:57;7.07;;;4.75;;
61336;SDS011;47212;41.326;2.104;2022-12-10T04:50:04;6.65;;;4.80;;
61336;SDS011;47212;41.326;2.104;2022-12-10T04:55:06;7.60;;;5.78;;
61336;SDS011;47212;41.326;2.104;2022-12-10T05:06:59;7.63;;;5.55;;
61336;SDS011;47212;41.326;2.104;2022-12-10T05:13:29;9.77;;;5.25;;
61336;SDS011;47212;41.326;2.104;2022-12-10T05:18:31;8.05;;;5.45;;
61336;SDS011;47212;41.326;2.104;2022-12-10T05:23:37;6.85;;;4.75;;
61336;SDS011;47212;41.326;2.104;2022-12-10T05:28:41;6.05;;;4.93;;
61336;SDS011;47212;41.326;2.104;2022-12-10T05:33:45;10.57;;;4.53;;
61336;SDS011;47212;41.326;2.104;2022-12-10T05:38:47;5.95;;;4.15;;
61336;SDS011;47212;41.326;2.104;2022-12-10T05:43:50;5.70;;;4.22;;
61336;SDS011;47212;41.326;2.104;2022-12-10T05:49:02;6.28;;;4.13;;
61336;SDS011;47212;41.326;2.104;2022-12-10T05:54:06;5.38;;;4.13;;
61336;SDS011;47212;41.326;2.104;2022-12-10T05:59:10;6.32;;;3.95;;
61336;SDS011;47212;41.326;2.104;2022-12-10T06:04:17;6.22;;;4.40;;
61336;SDS011;47212;41.326;2.104;2022-12-10T06:09:19;6.55;;;4.70;;
61336;SDS011;47212;41.326;2.104;2022-12-10T06:14:21;5.65;;;4.25;;
61336;SDS011;47212;41.326;2.104;2022-12-10T06:19:23;8.02;;;4.57;;
61336;SDS011;47212;41.326;2.104;2022-12-10T06:29:28;7.00;;;4.23;;
61336;SDS011;47212;41.326;2.104;2022-12-10T06:34:30;7.10;;;4.57;;
61336;SDS011;47212;41.326;2.104;2022-12-10T06:39:32;7.45;;;4.90;;
61336;SDS011;47212;41.326;2.104;2022-12-10T06:44:34;7.20;;;5.63;;
61336;SDS011;47212;41.326;2.104;2022-12-10T06:49:36;6.80;;;4.82;;
61336;SDS011;47212;41.326;2.104;2022-12-10T06:54:40;6.22;;;4.65;;
61336;SDS011;47212;41.326;2.104;2022-12-10T06:59:44;6.25;;;4.25;;
61336;SDS011;47212;41.326;2.104;2022-12-10T07:04:46;7.20;;;4.32;;
61336;SDS011;47212;41.326;2.104;2022-12-10T07:09:48;7.05;;;4.85;;
61336;SDS011;47212;41.326;2.104;2022-12-10T07:14:50;7.57;;;5.32;;
61336;SDS011;47212;41.326;2.104;2022-12-10T07:19:53;7.53;;;4.97;;
61336;SDS011;47212;41.326;2.104;2022-12-10T07:24:55;7.07;;;4.47;;
61336;SDS011;47212;41.326;2.104;2022-12-10T07:29:57;9.70;;;6.40;;
61336;SDS011;47212;41.326;2.104;2022-12-10T07:34:59;9.52;;;5.20;;
61336;SDS011;47212;41.326;2.104;2022-12-10T07:40:08;7.40;;;5.47;;
61336;SDS011;47212;41.326;2.104;2022-12-10T07:45:11;6.95;;;5.22;;
61336;SDS011;47212;41.326;2.104;2022-12-10T07:50:13;7.78;;;5.53;;
61336;SDS011;47212;41.326;2.104;2022-12-10T07:55:15;6.75;;;4.90;;
61336;SDS011;47212;41.326;2.104;2022-12-10T08:00:17;7.28;;;5.20;;
61336;SDS011;47212;41.326;2.104;2022-12-10T08:10:25;8.07;;;5.13;;
61336;SDS011;47212;41.326;2.104;2022-12-10T08:15:27;8.00;;;5.78;;
61336;SDS011;47212;41.326;2.104;2022-12-10T08:20:29;8.68;;;5.82;;
61336;SDS011;47212;41.326;2.104;2022-12-10T08:25:31;6.85;;;5.28;;
61336;SDS011;47212;41.326;2.104;2022-12-10T08:30:45;8.52;;;6.18;;
61336;SDS011;47212;41.326;2.104;2022-12-10T08:36:01;8.95;;;6.50;;
61336;SDS011;47212;41.326;2.104;2022-12-10T08:46:13;11.05;;;6.78;;
61336;SDS011;47212;41.326;2.104;2022-12-10T08:51:17;10.32;;;7.07;;
61336;SDS011;47212;41.326;2.104;2022-12-10T08:56:20;11.77;;;7.35;;
61336;SDS011;47212;41.326;2.104;2022-12-10T09:01:32;8.75;;;6.88;;
61336;SDS011;47212;41.326;2.104;2022-12-10T09:06:37;9.70;;;6.68;;
61336;SDS011;47212;41.326;2.104;2022-12-10T09:11:40;11.07;;;6.75;;
61336;SDS011;47212;41.326;2.104;2022-12-10T09:16:41;7.40;;;5.72;;
61336;SDS011;47212;41.326;2.104;2022-12-10T09:21:44;8.75;;;6.55;;
61336;SDS011;47212;41.326;2.104;2022-12-10T09:26:49;9.13;;;6.47;;
61336;SDS011;47212;41.326;2.104;2022-12-10T09:36:56;9.73;;;6.18;;
61336;SDS011;47212;41.326;2.104;2022-12-10T09:47:08;10.13;;;6.93;;
61336;SDS011;47212;41.326;2.104;2022-12-10T09:52:12;7.13;;;5.45;;
61336;SDS011;47212;41.326;2.104;2022-12-10T10:02:36;4.43;;;3.10;;
61336;SDS011;47212;41.326;2.104;2022-12-10T10:13:31;2.95;;;1.92;;
61336;SDS011;47212;41.326;2.104;2022-12-10T10:18:39;2.22;;;1.90;;
61336;SDS011;47212;41.326;2.104;2022-12-10T10:23:45;2.00;;;1.77;;
61336;SDS011;47212;41.326;2.104;2022-12-10T10:28:48;1.65;;;1.40;;
61336;SDS011;47212;41.326;2.104;2022-12-10T10:34:02;1.67;;;1.48;;
61336;SDS011;47212;41.326;2.104;2022-12-10T10:39:24;1.70;;;1.50;;
61336;SDS011;47212;41.326;2.104;2022-12-10T10:44:33;2.92;;;1.63;;
61336;SDS011;47212;41.326;2.104;2022-12-10T10:49:39;2.03;;;1.60;;
61336;SDS011;47212;41.326;2.104;2022-12-10T10:54:47;3.30;;;1.73;;
61336;SDS011;47212;41.326;2.104;2022-12-10T10:59:54;1.88;;;1.55;;
61336;SDS011;47212;41.326;2.104;2022-12-10T11:05:23;2.25;;;1.65;;
61336;SDS011;47212;41.326;2.104;2022-12-10T11:10:35;4.47;;;1.90;;
61336;SDS011;47212;41.326;2.104;2022-12-10T11:15:40;2.78;;;1.67;;
61336;SDS011;47212;41.326;2.104;2022-12-10T11:20:46;4.15;;;2.08;;
61336;SDS011;47212;41.326;2.104;2022-12-10T11:26:42;3.40;;;2.20;;
61336;SDS011;47212;41.326;2.104;2022-12-10T11:36:54;15.25;;;10.10;;
61336;SDS011;47212;41.326;2.104;2022-12-10T11:42:18;8.05;;;3.92;;
61336;SDS011;47212;41.326;2.104;2022-12-10T11:52:58;2.85;;;1.83;;
61336;SDS011;47212;41.326;2.104;2022-12-10T12:14:36;3.20;;;1.70;;
61336;SDS011;47212;41.326;2.104;2022-12-10T12:19:51;3.63;;;1.80;;
61336;SDS011;47212;41.326;2.104;2022-12-10T12:25:01;2.95;;;1.65;;
61336;SDS011;47212;41.326;2.104;2022-12-10T12:30:41;3.20;;;1.67;;
61336;SDS011;47212;41.326;2.104;2022-12-10T12:46:38;2.45;;;1.52;;
61336;SDS011;47212;41.326;2.104;2022-12-10T12:57:45;2.30;;;1.60;;
61336;SDS011;47212;41.326;2.104;2022-12-10T13:02:59;2.30;;;1.73;;
61336;SDS011;47212;41.326;2.104;2022-12-10T13:13:24;4.65;;;2.42;;
61336;SDS011;47212;41.326;2.104;2022-12-10T13:23:47;2.70;;;1.80;;
61336;SDS011;47212;41.326;2.104;2022-12-10T13:28:57;2.35;;;1.58;;
61336;SDS011;47212;41.326;2.104;2022-12-10T13:34:21;3.65;;;2.10;;
61336;SDS011;47212;41.326;2.104;2022-12-10T13:39:34;4.38;;;2.65;;
61336;SDS011;47212;41.326;2.104;2022-12-10T13:50:35;3.28;;;2.20;;
61336;SDS011;47212;41.326;2.104;2022-12-10T14:06:50;4.20;;;2.53;;
61336;SDS011;47212;41.326;2.104;2022-12-10T14:12:07;3.28;;;2.25;;
61336;SDS011;47212;41.326;2.104;2022-12-10T14:17:18;3.42;;;2.15;;
61336;SDS011;47212;41.326;2.104;2022-12-10T14:22:37;2.75;;;1.80;;
61336;SDS011;47212;41.326;2.104;2022-12-10T14:27:41;3.38;;;1.80;;
61336;SDS011;47212;41.326;2.104;2022-12-10T14:37:47;2.33;;;1.75;;
61336;SDS011;47212;41.326;2.104;2022-12-10T14:42:53;3.15;;;1.60;;
61336;SDS011;47212;41.326;2.104;2022-12-10T14:48:04;3.00;;;1.90;;
61336;SDS011;47212;41.326;2.104;2022-12-10T14:53:23;2.33;;;1.70;;
61336;SDS011;47212;41.326;2.104;2022-12-10T14:58:36;2.40;;;1.48;;
61336;SDS011;47212;41.326;2.104;2022-12-10T15:03:44;2.90;;;1.42;;
61336;SDS011;47212;41.326;2.104;2022-12-10T15:08:49;2.88;;;1.70;;
61336;SDS011;47212;41.326;2.104;2022-12-10T15:13:57;3.05;;;1.70;;
61336;SDS011;47212;41.326;2.104;2022-12-10T15:19:08;2.28;;;1.63;;
61336;SDS011;47212;41.326;2.104;2022-12-10T15:34:29;3.95;;;2.25;;
61336;SDS011;47212;41.326;2.104;2022-12-10T15:39:44;4.32;;;1.75;;
61336;SDS011;47212;41.326;2.104;2022-12-10T15:44:59;2.83;;;1.60;;
61336;SDS011;47212;41.326;2.104;2022-12-10T15:50:10;5.32;;;1.70;;
61336;SDS011;47212;41.326;2.104;2022-12-10T15:55:13;2.80;;;1.80;;
61336;SDS011;47212;41.326;2.104;2022-12-10T16:00:23;2.90;;;1.85;;
61336;SDS011;47212;41.326;2.104;2022-12-10T16:05:34;2.45;;;1.48;;
61336;SDS011;47212;41.326;2.104;2022-12-10T16:10:38;2.72;;;1.80;;
61336;SDS011;47212;41.326;2.104;2022-12-10T16:15:43;9.38;;;5.18;;
61336;SDS011;47212;41.326;2.104;2022-12-10T16:20:48;9.88;;;5.07;;
61336;SDS011;47212;41.326;2.104;2022-12-10T16:25:51;4.85;;;3.00;;
61336;SDS011;47212;41.326;2.104;2022-12-10T16:30:57;3.92;;;1.90;;
61336;SDS011;47212;41.326;2.104;2022-12-10T16:36:04;2.95;;;1.55;;
61336;SDS011;47212;41.326;2.104;2022-12-10T16:41:10;1.48;;;1.10;;
61336;SDS011;47212;41.326;2.104;2022-12-10T16:46:19;1.90;;;1.37;;
61336;SDS011;47212;41.326;2.104;2022-12-10T16:51:28;2.58;;;1.50;;
61336;SDS011;47212;41.326;2.104;2022-12-10T16:56:34;2.78;;;1.30;;
61336;SDS011;47212;41.326;2.104;2022-12-10T17:01:42;1.90;;;1.27;;
61336;SDS011;47212;41.326;2.104;2022-12-10T17:06:47;5.68;;;1.50;;
61336;SDS011;47212;41.326;2.104;2022-12-10T17:11:49;2.22;;;1.35;;
61336;SDS011;47212;41.326;2.104;2022-12-10T17:16:54;1.88;;;1.38;;
61336;SDS011;47212;41.326;2.104;2022-12-10T17:22:02;3.92;;;1.50;;
61336;SDS011;47212;41.326;2.104;2022-12-10T17:27:07;1.90;;;1.33;;
61336;SDS011;47212;41.326;2.104;2022-12-10T17:32:19;1.88;;;1.48;;
61336;SDS011;47212;41.326;2.104;2022-12-10T17:37:24;2.40;;;1.50;;
61336;SDS011;47212;41.326;2.104;2022-12-10T17:42:30;2.67;;;1.75;;
61336;SDS011;47212;41.326;2.104;2022-12-10T17:47:35;2.05;;;1.40;;
61336;SDS011;47212;41.326;2.104;2022-12-10T17:52:40;3.28;;;1.83;;
61336;SDS011;47212;41.326;2.104;2022-12-10T17:57:42;2.95;;;1.67;;
61336;SDS011;47212;41.326;2.104;2022-12-10T18:07:47;3.25;;;1.42;;
61336;SDS011;47212;41.326;2.104;2022-12-10T18:12:50;1.90;;;1.60;;
61336;SDS011;47212;41.326;2.104;2022-12-10T18:17:55;2.15;;;1.45;;
61336;SDS011;47212;41.326;2.104;2022-12-10T18:22:58;4.13;;;2.28;;
61336;SDS011;47212;41.326;2.104;2022-12-10T18:28:03;4.00;;;2.50;;
61336;SDS011;47212;41.326;2.104;2022-12-10T18:33:27;4.00;;;2.55;;
61336;SDS011;47212;41.326;2.104;2022-12-10T18:38:37;4.80;;;3.08;;
61336;SDS011;47212;41.326;2.104;2022-12-10T18:43:39;5.97;;;2.65;;
61336;SDS011;47212;41.326;2.104;2022-12-10T18:53:44;3.97;;;2.33;;
61336;SDS011;47212;41.326;2.104;2022-12-10T18:58:49;3.08;;;1.80;;
61336;SDS011;47212;41.326;2.104;2022-12-10T19:03:53;2.40;;;1.60;;
61336;SDS011;47212;41.326;2.104;2022-12-10T19:08:57;2.22;;;1.70;;
61336;SDS011;47212;41.326;2.104;2022-12-10T19:14:23;2.30;;;1.40;;
61336;SDS011;47212;41.326;2.104;2022-12-10T19:19:25;2.83;;;1.75;;
61336;SDS011;47212;41.326;2.104;2022-12-10T19:24:28;3.03;;;1.65;;
61336;SDS011;47212;41.326;2.104;2022-12-10T19:29:30;6.85;;;2.95;;
61336;SDS011;47212;41.326;2.104;2022-12-10T19:34:32;3.38;;;2.33;;
61336;SDS011;47212;41.326;2.104;2022-12-10T19:39:37;2.45;;;1.70;;
61336;SDS011;47212;41.326;2.104;2022-12-10T19:44:44;2.78;;;1.70;;
61336;SDS011;47212;41.326;2.104;2022-12-10T19:49:49;2.50;;;1.55;;
61336;SDS011;47212;41.326;2.104;2022-12-10T19:54:51;2.45;;;1.45;;
61336;SDS011;47212;41.326;2.104;2022-12-10T19:59:53;3.33;;;1.85;;
61336;SDS011;47212;41.326;2.104;2022-12-10T20:04:56;3.47;;;2.10;;
61336;SDS011;47212;41.326;2.104;2022-12-10T20:15:00;3.77;;;1.93;;
61336;SDS011;47212;41.326;2.104;2022-12-10T20:20:02;3.22;;;2.17;;
61336;SDS011;47212;41.326;2.104;2022-12-10T20:25:05;3.53;;;2.20;;
61336;SDS011;47212;41.326;2.104;2022-12-10T20:30:13;3.70;;;1.92;;
61336;SDS011;47212;41.326;2.104;2022-12-10T20:35:26;6.38;;;2.38;;
61336;SDS011;47212;41.326;2.104;2022-12-10T20:40:31;3.20;;;2.38;;
61336;SDS011;47212;41.326;2.104;2022-12-10T20:45:34;3.35;;;2.00;;
61336;SDS011;47212;41.326;2.104;2022-12-10T20:55:38;3.80;;;2.17;;
61336;SDS011;47212;41.326;2.104;2022-12-10T21:00:41;2.83;;;1.98;;
61336;SDS011;47212;41.326;2.104;2022-12-10T21:05:45;3.85;;;2.10;;
61336;SDS011;47212;41.326;2.104;2022-12-10T21:10:47;3.10;;;1.80;;
61336;SDS011;47212;41.326;2.104;2022-12-10T21:15:52;5.22;;;2.10;;
61336;SDS011;47212;41.326;2.104;2022-12-10T21:20:56;2.60;;;1.73;;
61336;SDS011;47212;41.326;2.104;2022-12-10T21:26:01;4.15;;;2.55;;
61336;SDS011;47212;41.326;2.104;2022-12-10T21:31:03;5.07;;;2.00;;
61336;SDS011;47212;41.326;2.104;2022-12-10T21:36:08;4.38;;;2.33;;
61336;SDS011;47212;41.326;2.104;2022-12-10T21:41:13;3.63;;;2.25;;
61336;SDS011;47212;41.326;2.104;2022-12-10T21:46:39;8.05;;;5.72;;
61336;SDS011;47212;41.326;2.104;2022-12-10T21:51:42;5.25;;;2.80;;
61336;SDS011;47212;41.326;2.104;2022-12-10T22:01:47;3.00;;;2.00;;
61336;SDS011;47212;41.326;2.104;2022-12-10T22:06:49;3.05;;;1.75;;
61336;SDS011;47212;41.326;2.104;2022-12-10T22:11:51;3.40;;;2.03;;
61336;SDS011;47212;41.326;2.104;2022-12-10T22:16:54;2.03;;;1.67;;
61336;SDS011;47212;41.326;2.104;2022-12-10T22:21:56;1.83;;;1.50;;
61336;SDS011;47212;41.326;2.104;2022-12-10T22:27:01;2.95;;;1.85;;
61336;SDS011;47212;41.326;2.104;2022-12-10T22:32:05;2.58;;;1.70;;
61336;SDS011;47212;41.326;2.104;2022-12-10T22:37:07;2.30;;;1.50;;
61336;SDS011;47212;41.326;2.104;2022-12-10T22:42:10;3.53;;;2.17;;
61336;SDS011;47212;41.326;2.104;2022-12-10T22:47:22;3.13;;;2.00;;
61336;SDS011;47212;41.326;2.104;2022-12-10T22:52:24;4.22;;;2.22;;
61336;SDS011;47212;41.326;2.104;2022-12-10T23:02:28;5.93;;;2.60;;
61336;SDS011;47212;41.326;2.104;2022-12-10T23:07:30;5.18;;;2.80;;
61336;SDS011;47212;41.326;2.104;2022-12-10T23:12:33;3.95;;;2.35;;
61336;SDS011;47212;41.326;2.104;2022-12-10T23:17:54;2.65;;;1.85;;
61336;SDS011;47212;41.326;2.104;2022-12-10T23:22:56;2.50;;;1.80;;
61336;SDS011;47212;41.326;2.104;2022-12-10T23:27:58;4.43;;;1.90;;
61336;SDS011;47212;41.326;2.104;2022-12-10T23:33:01;4.07;;;1.83;;
61336;SDS011;47212;41.326;2.104;2022-12-10T23:38:09;2.63;;;2.00;;
61336;SDS011;47212;41.326;2.104;2022-12-10T23:43:11;3.53;;;2.22;;
61336;SDS011;47212;41.326;2.104;2022-12-10T23:53:16;3.42;;;2.03;;
61336;SDS011;47212;41.326;2.104;2022-12-10T23:58:18;5.07;;;2.28;;
